createdAt,value
2023-02-12T00:00:33.694Z,34.9
2023-02-12T00:05:22.022Z,36.8
2023-02-12T00:10:28.042Z,34.4
2023-02-12T00:15:17.177Z,32.9
2023-02-12T00:20:23.129Z,33.4
2023-02-12T00:25:29.147Z,34.8
2023-02-12T00:30:18.516Z,32.7
2023-02-12T00:35:24.324Z,28.9
2023-02-12T00:40:29.933Z,31.5
2023-02-12T00:45:18.730Z,29.0
2023-02-12T00:50:24.996Z,29.4
2023-02-12T00:55:31.029Z,26.8
2023-02-12T01:00:20.132Z,28.0
2023-02-12T01:05:26.329Z,29.1
2023-02-12T01:10:32.780Z,30.5
2023-02-12T01:15:21.533Z,25.9
2023-02-12T01:20:27.461Z,25.1
2023-02-12T01:25:33.756Z,24.8
2023-02-12T01:30:22.717Z,22.6
2023-02-12T01:35:28.761Z,20.4
2023-02-12T01:40:17.278Z,20.5
2023-02-12T01:45:23.387Z,21.5
2023-02-12T01:50:29.658Z,20.2
2023-02-12T01:55:18.711Z,21.4
2023-02-12T02:00:24.518Z,27.4
2023-02-12T02:05:30.425Z,30.8
2023-02-12T02:10:18.742Z,32.6
2023-02-12T02:15:24.891Z,31.0
2023-02-12T02:20:31.000Z,30.8
2023-02-12T02:25:20.522Z,31.1
2023-02-12T02:30:26.149Z,27.0
2023-02-12T02:35:32.247Z,24.8
2023-02-12T02:40:20.769Z,23.8
2023-02-12T02:45:26.952Z,22.0
2023-02-12T02:50:33.012Z,20.5
2023-02-12T02:55:21.998Z,21.5
2023-02-12T03:00:28.127Z,25.4
2023-02-12T03:05:17.680Z,26.7
2023-02-12T03:10:23.685Z,29.3
2023-02-12T03:15:29.734Z,30.5
2023-02-12T03:20:18.618Z,31.5
2023-02-12T03:25:24.679Z,32.9
2023-02-12T03:30:30.946Z,31.5
2023-02-12T03:35:19.646Z,31.0
2023-02-12T03:40:25.338Z,31.0
2023-02-12T03:45:31.731Z,28.5
2023-02-12T03:50:20.432Z,34.6
2023-02-12T03:55:26.543Z,34.0
2023-02-12T04:00:33.182Z,35.0
2023-02-12T04:05:21.415Z,36.7
2023-02-12T04:10:26.987Z,33.4
2023-02-12T04:15:33.191Z,28.4
2023-02-12T04:20:21.918Z,27.1
2023-02-12T04:25:28.126Z,25.8
2023-02-12T04:30:16.994Z,24.0
2023-02-12T04:35:23.168Z,26.9
2023-02-12T04:40:28.707Z,24.5
2023-02-12T04:45:17.844Z,26.1
2023-02-12T04:50:23.857Z,26.6
2023-02-12T04:55:29.946Z,23.8
2023-02-12T05:00:18.835Z,21.9
2023-02-12T05:05:25.343Z,24.6
2023-02-12T05:10:31.297Z,24.9
2023-02-12T05:15:20.228Z,21.4
2023-02-12T05:20:26.441Z,20.8
2023-02-12T05:25:32.769Z,23.1
2023-02-12T05:30:21.414Z,33.9
2023-02-12T05:35:27.544Z,34.1
2023-02-12T05:40:33.504Z,34.1
2023-02-12T05:45:22.121Z,33.5
2023-02-12T05:50:28.204Z,44.2
2023-02-12T05:55:17.273Z,46.2
2023-02-12T06:00:23.509Z,47.8
2023-02-12T06:05:28.770Z,55.5
2023-02-12T06:10:17.871Z,51.2
2023-02-12T06:15:23.987Z,58.1
2023-02-12T06:20:30.143Z,60.4
2023-02-12T06:25:18.846Z,61.6
2023-02-12T06:30:25.101Z,58.5
2023-02-12T06:35:31.142Z,68.1
2023-02-12T06:40:20.208Z,62.5
2023-02-12T06:45:25.817Z,65.5
2023-02-12T06:50:31.947Z,64.7
2023-02-12T06:55:21.004Z,63.9
2023-02-12T07:00:27.105Z,61.7
2023-02-12T07:05:33.570Z,60.7
2023-02-12T07:10:22.669Z,58.6
2023-02-12T07:15:29.340Z,61.8
2023-02-12T07:20:17.743Z,60.4
2023-02-12T07:25:23.565Z,59.2
2023-02-12T07:30:30.252Z,53.9
2023-02-12T07:35:18.710Z,48.7
2023-02-12T07:40:24.076Z,53.3
2023-02-12T07:45:30.164Z,53.2
2023-02-12T07:50:19.208Z,51.2
2023-02-12T07:55:25.299Z,46.8
2023-02-12T08:00:31.252Z,49.4
2023-02-12T08:05:19.580Z,47.5
2023-02-12T08:10:25.719Z,45.2
2023-02-12T08:15:31.707Z,47.8
2023-02-12T08:20:20.739Z,51.1
2023-02-12T08:25:26.790Z,50.3
2023-02-12T08:30:33.499Z,53.4
2023-02-12T08:35:21.944Z,58.4
2023-02-12T08:40:27.828Z,54.3
2023-02-12T08:45:16.717Z,59.4
2023-02-12T08:50:22.962Z,58.3
2023-02-12T08:55:29.067Z,60.3
2023-02-12T09:00:24.121Z,56.0
2023-02-12T09:05:30.511Z,57.5
2023-02-12T09:10:19.382Z,54.5
2023-02-12T09:15:25.565Z,61.3
2023-02-12T09:20:31.804Z,55.1
2023-02-12T09:25:20.626Z,56.1
2023-02-12T09:30:26.752Z,54.1
2023-02-12T09:35:32.792Z,49.9
2023-02-12T09:40:21.303Z,52.2
2023-02-12T09:45:27.548Z,49.2
2023-02-12T09:50:33.416Z,48.3
2023-02-12T09:55:22.389Z,53.2
2023-02-12T10:00:28.474Z,50.4
2023-02-12T10:05:16.821Z,46.7
2023-02-12T10:10:22.950Z,41.8
2023-02-12T10:15:28.935Z,41.0
2023-02-12T10:20:18.030Z,43.3
2023-02-12T10:25:24.136Z,46.5
2023-02-12T10:30:30.191Z,44.2
2023-02-12T10:35:19.194Z,45.2
2023-02-12T10:40:24.864Z,42.5
2023-02-12T10:45:30.947Z,41.8
2023-02-12T10:50:19.982Z,45.7
2023-02-12T11:10:27.973Z,40.8
2023-02-12T11:15:34.624Z,41.2
2023-02-12T11:20:23.080Z,37.7
2023-02-12T11:25:21.365Z,36.5
2023-02-12T11:45:22.232Z,30.3
2023-02-12T11:50:30.252Z,29.2
2023-02-12T12:10:31.358Z,28.5
2023-02-12T12:15:20.753Z,25.2
2023-02-12T12:20:27.011Z,25.7
2023-02-12T12:25:33.162Z,25.1
2023-02-12T12:30:21.697Z,25.1
2023-02-12T12:35:28.039Z,24.6
2023-02-12T12:40:36.015Z,23.7
2023-02-12T12:45:32.605Z,25.3
2023-02-12T12:50:28.613Z,26.8
2023-02-12T12:55:17.798Z,27.2
2023-02-12T13:00:26.770Z,31.0
2023-02-12T13:05:29.253Z,34.1
2023-02-12T13:10:18.237Z,33.8
2023-02-12T13:15:24.090Z,36.8
2023-02-12T13:20:30.522Z,36.2
2023-02-12T13:25:19.321Z,34.3
2023-02-12T13:30:25.443Z,31.5
2023-02-12T13:35:31.522Z,29.6
2023-02-12T13:40:22.778Z,29.9
2023-02-12T13:45:27.194Z,31.4
2023-02-12T13:50:33.229Z,32.0
2023-02-12T13:55:22.190Z,29.6
2023-02-12T14:00:35.236Z,29.9
2023-02-12T14:05:33.688Z,31.0
2023-02-12T14:10:22.469Z,27.4
2023-02-12T14:15:28.732Z,31.3
2023-02-12T14:20:17.751Z,27.2
2023-02-12T14:25:23.939Z,30.9
2023-02-12T14:30:29.973Z,32.6
2023-02-12T14:35:18.711Z,31.7
2023-02-12T14:40:25.842Z,33.7
2023-02-12T14:45:30.620Z,37.0
2023-02-12T14:50:19.685Z,34.8
2023-02-12T14:55:25.734Z,31.7
2023-02-12T15:00:33.865Z,30.5
2023-02-12T15:05:20.512Z,28.6
2023-02-12T15:10:26.258Z,27.2
2023-02-12T15:15:32.736Z,29.8
2023-02-12T15:20:21.532Z,29.6
2023-02-12T15:25:27.343Z,26.4
2023-02-12T15:30:33.387Z,26.7
2023-02-12T15:35:22.693Z,27.6
2023-02-12T15:40:28.915Z,25.4
2023-02-12T15:45:17.937Z,25.3
2023-02-12T15:50:23.805Z,23.6
2023-02-12T15:55:30.633Z,25.0
2023-02-12T16:00:23.551Z,29.0
2023-02-12T16:05:24.346Z,24.5
2023-02-12T16:10:30.296Z,26.4
2023-02-12T16:15:19.541Z,33.5
2023-02-12T16:20:27.044Z,35.5
2023-02-12T16:25:31.772Z,28.5
2023-02-12T16:30:20.634Z,35.2
2023-02-12T16:35:26.822Z,26.4
2023-02-12T16:40:32.570Z,27.0
2023-02-12T16:45:21.280Z,28.6
2023-02-12T16:50:27.499Z,29.7
2023-02-12T16:55:33.393Z,29.6
2023-02-12T17:00:26.688Z,25.4
2023-02-12T17:05:27.516Z,25.4
2023-02-12T17:10:33.579Z,27.9
2023-02-12T17:15:22.251Z,28.0
2023-02-12T17:20:28.717Z,28.0
2023-02-12T17:25:17.536Z,25.8
2023-02-12T17:30:23.561Z,24.6
2023-02-12T17:35:29.493Z,25.2
2023-02-12T17:40:20.901Z,22.7
2023-02-12T17:45:24.904Z,25.7
2023-02-12T17:50:30.954Z,24.3
2023-02-12T17:55:20.106Z,21.9
2023-02-12T18:00:28.700Z,23.1
2023-02-12T18:05:31.411Z,18.9
2023-02-12T18:10:20.344Z,19.9
2023-02-12T18:15:26.527Z,18.0
2023-02-12T18:20:33.337Z,16.6
2023-02-12T18:25:21.758Z,14.8
2023-02-12T18:30:28.002Z,15.1
2023-02-12T18:35:34.943Z,13.1
2023-02-12T18:40:22.887Z,18.3
2023-02-12T18:45:29.446Z,28.2
2023-02-12T18:50:17.424Z,24.3
2023-02-12T18:55:23.898Z,25.3
2023-02-12T19:00:31.157Z,28.5
2023-02-12T19:05:19.164Z,26.9
2023-02-12T19:10:25.162Z,26.8
2023-02-12T19:15:31.036Z,25.1
2023-02-12T19:20:20.318Z,28.2
2023-02-12T19:25:26.300Z,20.1
2023-02-12T19:30:32.271Z,21.2
2023-02-12T19:35:21.133Z,19.8
2023-02-12T19:40:27.048Z,32.3
2023-02-12T19:45:33.022Z,24.7
2023-02-12T19:50:22.159Z,29.1
2023-02-12T19:55:28.392Z,15.5
2023-02-12T20:00:36.468Z,13.4
2023-02-12T20:05:22.394Z,13.2
2023-02-12T20:10:28.262Z,19.9
2023-02-12T20:15:17.376Z,25.7
2023-02-12T20:20:23.486Z,17.6
2023-02-12T20:25:29.693Z,14.3
2023-02-12T20:30:18.700Z,15.5
2023-02-12T20:35:24.679Z,13.5
2023-02-12T20:40:30.507Z,13.1
2023-02-12T20:45:19.358Z,15.8
2023-02-12T20:50:26.569Z,17.7
2023-02-12T20:55:32.013Z,18.2
2023-02-12T21:00:24.805Z,19.2
2023-02-12T21:05:27.652Z,21.4
2023-02-12T21:10:33.601Z,23.1
2023-02-12T21:15:22.398Z,52.6
2023-02-12T21:20:29.802Z,41.1
2023-02-12T21:25:17.918Z,26.9
2023-02-12T21:30:23.953Z,24.7
2023-02-12T21:35:29.713Z,87.5
2023-02-12T21:40:18.976Z,27.3
2023-02-12T21:45:24.956Z,46.8
2023-02-12T21:50:31.446Z,61.6
2023-02-12T21:55:19.948Z,48.9
2023-02-12T22:00:28.926Z,32.1
2023-02-12T22:05:31.941Z,38.5
2023-02-12T22:10:20.762Z,35.8
2023-02-12T22:15:27.005Z,37.8
2023-02-12T22:20:33.247Z,50.7
2023-02-12T22:25:21.938Z,43.1
2023-02-12T22:30:27.924Z,37.2
2023-02-12T22:35:34.306Z,35.9
2023-02-12T22:40:24.336Z,42.3
2023-02-12T22:45:28.530Z,43.5
2023-02-12T22:50:17.357Z,46.5
2023-02-12T22:55:23.611Z,41.8
2023-02-12T23:00:32.736Z,46.2
2023-02-12T23:05:23.357Z,59.6
2023-02-12T23:10:28.619Z,52.3
2023-02-12T23:15:35.358Z,40.3
2023-02-12T23:20:28.221Z,42.1
2023-02-12T23:25:34.169Z,38.7
2023-02-12T23:30:18.217Z,34.0
2023-02-12T23:35:24.568Z,39.6
2023-02-12T23:40:30.164Z,47.1
2023-02-12T23:45:19.303Z,47.3
2023-02-12T23:50:24.966Z,66.1
2023-02-12T23:55:30.961Z,65.8
